Time;durP1;ratioP1;P1;durP2;ratioP2;P2;SDS_P1;SDS_P2;PMS_P1;PMS_P2;Temp;Humidity;BMP_temperature;BMP_pressure;BME280_temperature;BME280_humidity;BME280_pressure;Samples;Min_cycle;Max_cycle;Signal;HPM_P1;HPM_P2
2022/10/22 00:00:12;;;;;;;4.05;2.65;;;;;;;8.01;87.18;101285.81;5053908;28;20056;-73
2022/10/22 00:02:38;;;;;;;4.60;3.15;;;;;;;8.02;86.96;101281.31;5052575;28;20037;-73
2022/10/22 00:05:04;;;;;;;4.80;2.40;;;;;;;8.02;86.35;101284.00;5052783;28;20030;-73
2022/10/22 00:07:30;;;;;;;6.57;2.60;;;;;;;8.02;86.42;101268.78;5054339;28;20036;-74
2022/10/22 00:09:56;;;;;;;4.90;2.53;;;;;;;8.01;86.77;101272.41;5053954;28;20029;-74
2022/10/22 00:12:21;;;;;;;4.47;2.97;;;;;;;7.96;86.70;101271.00;5052708;28;20043;-73
2022/10/22 00:14:48;;;;;;;4.57;2.28;;;;;;;7.97;86.32;101268.22;5052277;28;20468;-74
2022/10/22 00:17:13;;;;;;;3.42;2.35;;;;;;;8.02;85.86;101275.97;5053823;28;20025;-75
2022/10/22 00:19:39;;;;;;;4.63;1.80;;;;;;;8.01;86.00;101280.47;5052641;28;20083;-73
2022/10/22 00:22:06;;;;;;;5.00;2.53;;;;;;;7.98;86.30;101274.44;5054387;28;20104;-73
2022/10/22 00:24:36;;;;;;;7.28;2.58;;;;;;;7.98;86.87;101275.28;5058157;28;20442;-72
2022/10/22 00:27:02;;;;;;;6.05;2.00;;;;;;;7.95;86.59;101275.47;5054016;28;20226;-73
2022/10/22 00:29:28;;;;;;;6.43;2.60;;;;;;;7.87;87.26;101272.41;5053725;28;20427;-73
2022/10/22 00:31:54;;;;;;;4.53;2.42;;;;;;;7.86;87.54;101265.31;5053686;28;20128;-73
2022/10/22 00:34:21;;;;;;;3.60;2.33;;;;;;;7.87;87.19;101260.81;5052225;28;20379;-72
2022/10/22 00:36:50;;;;;;;6.60;2.53;;;;;;;7.92;86.89;101267.66;5052338;28;20024;-74
2022/10/22 00:39:17;;;;;;;6.32;2.70;;;;;;;7.87;86.80;101260.81;5051683;28;20025;-73
2022/10/22 00:41:44;;;;;;;4.75;2.65;;;;;;;7.87;87.22;101256.34;5053484;28;20056;-74
2022/10/22 00:44:47;;;;;;;3.47;2.08;;;;;;;7.95;87.22;101258.56;5051712;28;20025;-73
2022/10/22 00:47:15;;;;;;;3.47;2.00;;;;;;;7.91;86.33;101241.81;5051771;28;20025;-73
2022/10/22 00:49:41;;;;;;;6.18;2.20;;;;;;;7.88;86.77;101247.34;5051948;28;20040;-73
2022/10/22 00:52:07;;;;;;;5.88;2.13;;;;;;;7.89;86.54;101248.19;5052908;28;20048;-72
2022/10/22 00:54:33;;;;;;;7.80;2.33;;;;;;;7.91;86.57;101239.16;5051593;28;20402;-74
2022/10/22 00:57:00;;;;;;;4.15;1.90;;;;;;;7.97;86.49;101246.78;5052993;28;20029;-74
2022/10/22 00:59:27;;;;;;;4.95;2.30;;;;;;;7.96;86.24;101242.41;5053100;28;20029;-75
2022/10/22 01:01:53;;;;;;;4.93;2.45;;;;;;;7.94;86.55;101235.41;5053339;28;20132;-73
2022/10/22 01:04:19;;;;;;;4.78;1.90;;;;;;;7.96;86.69;101239.72;5051728;28;20458;-74
2022/10/22 01:06:46;;;;;;;4.13;2.00;;;;;;;7.91;86.54;101240.97;5053195;28;20029;-73
2022/10/22 01:09:21;;;;;;;5.18;1.88;;;;;;;7.93;87.33;101239.91;5052588;28;20113;-75
2022/10/22 01:11:49;;;;;;;;;;;;;;;7.96;86.82;101234.38;5053371;28;20033;-73
2022/10/22 01:14:29;;;;;;;3.50;1.52;;;;;;;7.92;88.20;101240.88;5051933;28;19913;-73
2022/10/22 01:17:04;;;;;;;3.90;2.15;;;;;;;7.93;87.97;101237.22;5053326;28;20052;-74
2022/10/22 01:19:54;;;;;;;3.53;1.80;;;;;;;7.93;88.66;101239.06;5052583;28;20043;-72
2022/10/22 01:22:34;;;;;;;5.57;2.30;;;;;;;7.91;88.95;101233.78;5052608;28;20075;-75
2022/10/22 01:25:12;;;;;;;12.32;2.40;;;;;;;7.89;89.02;101237.50;5052425;28;20063;-74
2022/10/22 01:28:06;;;;;;;4.22;1.83;;;;;;;7.89;89.40;101227.66;5051123;28;20101;-74
2022/10/22 01:30:34;;;;;;;3.65;2.17;;;;;;;7.88;89.39;101220.56;5052647;28;20037;-74
2022/10/22 01:33:05;;;;;;;5.70;2.13;;;;;;;7.91;89.33;101223.09;5050995;28;20032;-72
2022/10/22 01:35:37;;;;;;;4.35;2.20;;;;;;;7.95;88.91;101226.44;5052917;28;20028;-73
2022/10/22 01:38:10;;;;;;;5.22;2.75;;;;;;;7.95;89.10;101224.63;5050916;28;20040;-74
2022/10/22 01:40:36;;;;;;;5.93;2.42;;;;;;;7.94;89.31;101220.22;5052177;28;20044;-73
2022/10/22 01:43:05;;;;;;;4.70;2.35;;;;;;;7.96;88.92;101220.13;5051897;28;20068;-74
2022/10/22 01:45:34;;;;;;;4.32;1.75;;;;;;;7.92;88.90;101216.78;5051154;28;20029;-73
2022/10/22 01:48:33;;;;;;;6.70;2.50;;;;;;;7.91;88.92;101212.38;5052264;28;20092;-73
2022/10/22 01:51:17;;;;;;;2.92;1.80;;;;;;;7.93;88.78;101212.28;5052075;28;20029;-75
2022/10/22 01:54:04;;;;;;;5.63;2.35;;;;;;;7.87;88.81;101204.59;5050751;28;20053;-73
2022/10/22 01:56:52;;;;;;;2.88;2.00;;;;;;;7.87;89.33;101213.50;5050762;28;20048;-74
2022/10/22 01:59:52;;;;;;;7.10;2.47;;;;;;;7.85;88.89;101210.06;5050763;28;20029;-73
2022/10/22 02:02:29;;;;;;;6.95;1.92;;;;;;;7.84;88.81;101206.53;5050845;28;20375;-73
2022/10/22 02:05:06;;;;;;;4.28;2.08;;;;;;;7.87;88.89;101205.47;5052090;28;20032;-73
2022/10/22 02:07:37;;;;;;;4.07;2.05;;;;;;;7.84;89.19;101202.97;5052002;28;20041;-73
2022/10/22 02:10:06;;;;;;;4.28;2.05;;;;;;;7.87;88.83;101189.41;5050854;28;20032;-74
2022/10/22 02:12:34;;;;;;;7.22;2.33;;;;;;;7.86;89.08;101190.34;5052068;28;20485;-74
2022/10/22 02:15:02;;;;;;;3.45;2.08;;;;;;;7.88;88.95;101198.28;5051793;28;20500;-74
2022/10/22 02:17:32;;;;;;;2.65;1.60;;;;;;;7.85;89.00;101196.66;5050604;28;20507;-72
2022/10/22 02:20:11;;;;;;;4.25;2.10;;;;;;;7.90;89.07;101191.91;5050420;28;20021;-74
2022/10/22 02:22:38;;;;;;;6.90;2.45;;;;;;;7.93;88.85;101190.84;5050785;28;20025;-73
2022/10/22 02:25:05;;;;;;;4.75;2.35;;;;;;;7.91;88.48;101193.63;5050433;28;20044;-73
2022/10/22 02:27:45;;;;;;;2.95;1.80;;;;;;;7.93;88.45;101190.84;5051897;28;20025;-73
2022/10/22 02:30:21;;;;;;;5.53;2.50;;;;;;;7.89;88.31;101194.66;5050407;28;20501;-75
2022/10/22 02:33:01;;;;;;;3.78;1.67;;;;;;;7.89;88.53;101190.16;5051892;28;20029;-75
2022/10/22 02:35:28;;;;;;;2.75;1.73;;;;;;;7.85;89.15;101184.16;5050453;28;20029;-74
2022/10/22 02:37:57;;;;;;;5.00;2.20;;;;;;;7.92;88.81;101191.81;5051806;28;20025;-75
2022/10/22 02:40:24;;;;;;;5.18;2.28;;;;;;;7.92;89.18;101183.78;5051654;28;20064;-75
2022/10/22 02:42:50;;;;;;;8.27;3.10;;;;;;;7.95;88.44;101187.13;5051785;28;20025;-73
2022/10/22 02:45:18;;;;;;;2.67;1.80;;;;;;;7.93;88.91;101181.00;5051624;28;20035;-73
2022/10/22 02:47:44;;;;;;;5.35;2.30;;;;;;;7.94;88.35;101182.72;5051499;28;20492;-73
2022/10/22 02:50:09;;;;;;;6.78;2.50;;;;;;;7.87;88.50;101172.47;5051935;28;20025;-74
2022/10/22 02:52:35;;;;;;;4.03;2.10;;;;;;;7.88;88.77;101177.72;5053402;28;20081;-73
2022/10/22 02:55:01;;;;;;;4.07;1.92;;;;;;;7.95;88.37;101183.59;5054997;28;20029;-73
2022/10/22 02:57:27;;;;;;;4.13;1.90;;;;;;;7.97;88.66;101182.53;5053801;28;20397;-72
2022/10/22 02:59:52;;;;;;;9.80;2.38;;;;;;;7.99;88.59;101177.94;5053974;28;20071;-72
2022/10/22 03:02:18;;;;;;;2.92;1.90;;;;;;;8.03;88.41;101181.28;5056085;28;20025;-73
2022/10/22 03:04:44;;;;;;;3.95;2.10;;;;;;;8.05;88.30;101180.22;5055232;28;20083;-74
2022/10/22 03:07:09;;;;;;;4.20;2.15;;;;;;;8.04;88.61;101173.16;5053643;28;20363;-74
2022/10/22 03:09:35;;;;;;;4.50;2.25;;;;;;;8.04;88.15;101178.50;5053655;28;20146;-73
2022/10/22 03:12:00;;;;;;;3.58;2.45;;;;;;;8.03;89.00;101174.09;5053640;28;20017;-72
2022/10/22 03:14:26;;;;;;;7.65;2.67;;;;;;;8.08;88.96;101177.38;5055002;28;20040;-74
2022/10/22 03:16:52;;;;;;;3.92;2.53;;;;;;;8.08;89.34;101169.34;5053807;28;20040;-72
2022/10/22 03:19:17;;;;;;;4.85;2.78;;;;;;;8.10;89.99;101177.28;5055180;28;20040;-75
2022/10/22 03:21:49;;;;;;;4.57;2.30;;;;;;;8.07;89.59;101167.63;5053408;28;20040;-72
2022/10/22 03:24:24;;;;;;;7.30;2.90;;;;;;;8.08;89.52;101161.31;5053515;28;20135;-74
2022/10/22 03:26:51;;;;;;;5.13;2.55;;;;;;;8.09;89.21;101165.69;5054909;28;20029;-74
2022/10/22 03:29:21;;;;;;;4.35;3.05;;;;;;;8.09;88.66;101157.66;5054576;28;20069;-74
2022/10/22 03:31:46;;;;;;;4.53;2.72;;;;;;;8.12;88.71;101154.78;5054727;28;20079;-74
2022/10/22 03:34:12;;;;;;;6.28;2.40;;;;;;;8.12;88.14;101144.06;5054612;28;20036;-72
2022/10/22 03:36:39;;;;;;;3.58;2.30;;;;;;;8.09;87.75;101152.31;5054417;28;20481;-73
2022/10/22 03:39:05;;;;;;;3.08;1.98;;;;;;;8.08;87.43;101152.41;5054251;28;20025;-73
2022/10/22 03:41:31;;;;;;;4.15;2.35;;;;;;;8.09;87.98;101155.00;5054712;28;20447;-73
2022/10/22 03:43:59;;;;;;;6.43;2.60;;;;;;;8.11;87.22;101155.75;5054319;28;20029;-73
2022/10/22 03:46:25;;;;;;;4.50;2.47;;;;;;;8.11;87.87;101163.78;5054311;28;20037;-75
2022/10/22 03:48:50;;;;;;;5.25;2.00;;;;;;;8.12;87.81;101154.78;5052879;28;20135;-74
2022/10/22 03:51:16;;;;;;;5.13;2.42;;;;;;;8.12;87.22;101138.72;5052974;28;20044;-74
2022/10/22 03:53:42;;;;;;;6.82;2.60;;;;;;;8.14;87.32;101142.16;5052707;28;20056;-74
2022/10/22 03:56:11;;;;;;;5.72;2.38;;;;;;;8.21;86.31;101147.09;5054401;28;20040;-73
2022/10/22 03:58:39;;;;;;;5.68;2.17;;;;;;;8.23;86.06;101145.19;5052861;28;20397;-73
2022/10/22 04:01:09;;;;;;;4.45;2.55;;;;;;;8.28;86.17;101148.44;5054240;28;20028;-74
2022/10/22 04:03:36;;;;;;;5.07;2.55;;;;;;;8.28;85.70;101148.44;5052237;28;20032;-74
2022/10/22 04:06:06;;;;;;;6.47;2.47;;;;;;;8.30;85.58;101141.19;5053928;28;20033;-73
2022/10/22 04:08:32;;;;;;;3.47;2.30;;;;;;;8.33;85.13;101135.63;5053064;28;20079;-73
2022/10/22 04:10:58;;;;;;;5.63;2.72;;;;;;;8.34;85.57;101135.53;5052571;28;20079;-72
2022/10/22 04:13:23;;;;;;;4.85;2.55;;;;;;;8.39;85.48;101140.59;5052624;28;20432;-74
2022/10/22 04:15:50;;;;;;;6.78;2.70;;;;;;;8.36;85.06;101140.81;5054404;28;20035;-74
2022/10/22 04:18:20;;;;;;;4.60;3.30;;;;;;;8.28;85.54;101143.09;5054182;28;20051;-73
2022/10/22 04:20:46;;;;;;;3.85;2.92;;;;;;;8.33;84.93;101124.91;5053559;28;20036;-74
2022/10/22 04:23:12;;;;;;;4.88;3.15;;;;;;;8.37;85.11;101131.78;5052524;28;20029;-74
2022/10/22 04:25:38;;;;;;;4.65;2.75;;;;;;;8.40;84.88;101142.34;5053953;28;20035;-72
2022/10/22 04:28:07;;;;;;;4.75;3.15;;;;;;;8.43;84.26;101131.41;5052490;28;20039;-73
2022/10/22 04:30:34;;;;;;;9.10;3.67;;;;;;;8.41;83.77;101141.38;5053689;28;20033;-72
2022/10/22 04:33:00;;;;;;;6.20;2.90;;;;;;;8.44;83.85;101133.13;5053147;28;20033;-73
2022/10/22 04:35:25;;;;;;;6.35;3.58;;;;;;;8.40;83.92;101129.81;5051851;28;20040;-73
2022/10/22 04:37:53;;;;;;;5.07;2.80;;;;;;;8.39;84.02;101119.16;5052369;28;20429;-74
2022/10/22 04:40:19;;;;;;;4.25;3.00;;;;;;;8.47;83.76;101129.41;5055457;28;20033;-73
2022/10/22 04:42:44;;;;;;;5.13;3.22;;;;;;;8.45;83.59;101126.81;5066276;28;20116;-73
2022/10/22 04:45:10;;;;;;;9.07;3.50;;;;;;;8.46;82.93;101123.19;5064371;28;20025;-73
2022/10/22 04:47:35;;;;;;;5.38;3.13;;;;;;;8.50;82.56;101123.81;5060600;28;20025;-74
2022/10/22 04:50:01;;;;;;;4.63;2.92;;;;;;;8.51;82.24;101121.03;5053306;28;20033;-75
2022/10/22 04:52:27;;;;;;;4.20;2.70;;;;;;;8.50;82.24;101115.78;5051623;28;20136;-74
2022/10/22 04:54:52;;;;;;;9.23;4.18;;;;;;;8.48;81.78;101113.22;5053176;28;20024;-74
2022/10/22 04:57:18;;;;;;;9.02;3.05;;;;;;;8.58;81.45;101108.13;5051774;28;20056;-73
2022/10/22 04:59:43;;;;;;;6.60;2.95;;;;;;;8.58;81.14;101108.97;5051830;28;20127;-72
2022/10/22 05:02:09;;;;;;;8.43;3.00;;;;;;;8.59;80.49;101109.84;5053044;28;20083;-74
2022/10/22 05:04:34;;;;;;;5.40;2.50;;;;;;;8.55;81.06;101108.28;5052743;28;20067;-74
2022/10/22 05:07:00;;;;;;;5.10;2.75;;;;;;;8.57;80.91;101101.91;5052885;28;20095;-73
2022/10/22 05:09:27;;;;;;;4.30;2.58;;;;;;;8.63;80.46;101106.84;5051544;28;20112;-73
2022/10/22 05:11:52;;;;;;;6.22;2.70;;;;;;;8.64;80.36;101105.88;5052661;28;20116;-74
2022/10/22 05:14:21;;;;;;;8.30;3.10;;;;;;;8.63;80.20;101104.16;5052066;28;20135;-73
2022/10/22 05:16:47;;;;;;;3.50;2.33;;;;;;;8.61;80.02;101098.03;5052732;28;20033;-72
2022/10/22 05:19:25;;;;;;;2.65;2.17;;;;;;;8.64;79.62;101102.34;5052395;28;20393;-74
2022/10/22 05:21:56;;;;;;;5.88;2.25;;;;;;;8.65;79.71;101086.16;5052780;28;20029;-73
2022/10/22 05:24:22;;;;;;;4.45;2.53;;;;;;;8.66;79.62;101092.38;5052684;28;20032;-73
2022/10/22 05:26:49;;;;;;;3.95;2.10;;;;;;;8.62;79.56;101083.69;5051183;28;20040;-72
2022/10/22 05:29:15;;;;;;;3.65;2.38;;;;;;;8.66;79.70;101078.97;5051050;28;20392;-73
2022/10/22 05:31:41;;;;;;;4.80;2.70;;;;;;;8.70;79.31;101081.34;5050930;28;20024;-71
2022/10/22 05:34:06;;;;;;;5.05;2.80;;;;;;;8.76;78.27;101077.41;5051011;28;20021;-74
2022/10/22 05:36:32;;;;;;;5.30;2.20;;;;;;;8.76;78.45;101073.88;5051474;28;20044;-73
2022/10/22 05:38:58;;;;;;;5.18;2.35;;;;;;;8.74;77.93;101077.50;5052136;28;20409;-72
2022/10/22 05:41:24;;;;;;;3.78;2.40;;;;;;;8.74;78.41;101080.19;5052366;28;20482;-73
2022/10/22 05:43:53;;;;;;;3.88;2.33;;;;;;;8.72;78.01;101074.03;5052639;28;20029;-73
2022/10/22 05:46:22;;;;;;;4.43;2.05;;;;;;;8.75;78.27;101078.38;5052649;28;20094;-74
2022/10/22 05:48:59;;;;;;;4.20;2.50;;;;;;;8.72;77.69;101071.34;5051272;28;20033;-74
2022/10/22 05:51:30;;;;;;;3.28;2.00;;;;;;;8.73;77.85;101067.75;5052279;28;20087;-74
2022/10/22 05:53:59;;;;;;;3.05;2.08;;;;;;;8.73;78.17;101075.78;5050499;28;20048;-74
2022/10/22 05:56:27;;;;;;;5.32;2.00;;;;;;;8.76;78.12;101069.34;5050822;28;20035;-74
2022/10/22 05:58:53;;;;;;;5.45;2.20;;;;;;;8.66;78.58;101073.59;5051019;28;20051;-74
2022/10/22 06:01:22;;;;;;;2.80;2.00;;;;;;;8.73;78.92;101070.44;5052019;28;20021;-74
2022/10/22 06:03:48;;;;;;;2.92;1.95;;;;;;;8.78;78.73;101071.94;5052688;28;20079;-73
2022/10/22 06:06:23;;;;;;;5.10;2.20;;;;;;;8.76;78.74;101071.19;5052821;28;20039;-73
2022/10/22 06:08:50;;;;;;;3.35;2.17;;;;;;;8.76;79.12;101073.88;5054512;28;20037;-72
2022/10/22 06:11:18;;;;;;;2.42;1.80;;;;;;;8.77;79.15;101064.84;5055911;28;20097;-74
2022/10/22 06:13:44;;;;;;;5.72;2.40;;;;;;;8.78;79.53;101071.94;5050823;28;20032;-74
2022/10/22 06:16:11;;;;;;;4.45;2.13;;;;;;;8.77;79.38;101064.84;5052210;28;20538;-73
2022/10/22 06:18:36;;;;;;;4.93;2.30;;;;;;;8.79;79.90;101068.28;5051897;28;20417;-74
2022/10/22 06:21:20;;;;;;;4.97;2.22;;;;;;;8.76;79.93;101066.69;5050245;28;20033;-73
2022/10/22 06:23:46;;;;;;;5.38;2.53;;;;;;;8.73;79.34;101065.06;5050366;28;20032;-72
2022/10/22 06:26:11;;;;;;;4.55;2.45;;;;;;;8.79;79.37;101065.59;5052043;28;20037;-73
2022/10/22 06:28:38;;;;;;;4.70;2.67;;;;;;;8.85;79.43;101067.84;5054713;28;20029;-73
2022/10/22 06:31:04;;;;;;;3.20;2.50;;;;;;;8.84;79.36;101064.31;5054425;28;20033;-74
2022/10/22 06:33:31;;;;;;;4.72;2.83;;;;;;;8.81;79.24;101059.16;5055715;28;20122;-74
2022/10/22 06:36:09;;;;;;;5.35;2.30;;;;;;;8.87;79.04;101060.56;5055766;28;20021;-74
2022/10/22 06:38:34;;;;;;;5.80;2.50;;;;;;;8.86;78.92;101059.72;5054431;28;20552;-73
2022/10/22 06:41:11;;;;;;;3.65;2.63;;;;;;;8.82;79.02;101055.53;5055527;28;20083;-73
2022/10/22 06:43:38;;;;;;;3.67;2.42;;;;;;;8.91;79.17;101051.38;5055570;28;20062;-74
2022/10/22 06:46:07;;;;;;;3.38;2.08;;;;;;;9.00;79.13;101058.78;5054154;28;20036;-72
2022/10/22 06:48:34;;;;;;;5.65;2.85;;;;;;;8.97;78.66;101057.16;5055637;28;20075;-73
2022/10/22 06:51:02;;;;;;;3.78;2.50;;;;;;;9.01;79.50;101057.81;5054889;28;20025;-73
2022/10/22 06:53:28;;;;;;;4.68;2.88;;;;;;;9.01;79.05;101052.44;5053962;28;20092;-73
2022/10/22 06:55:54;;;;;;;3.70;2.47;;;;;;;9.07;79.18;101057.41;5054153;28;20021;-73
2022/10/22 06:58:19;;;;;;;4.00;2.78;;;;;;;9.08;79.39;101059.13;5055452;28;20504;-73
2022/10/22 07:00:45;;;;;;;8.40;3.08;;;;;;;9.04;79.17;101058.44;5054959;28;20029;-73
2022/10/22 07:03:14;;;;;;;5.00;2.88;;;;;;;9.08;80.16;101061.81;5055360;28;20100;-73
2022/10/22 07:05:41;;;;;;;6.65;3.00;;;;;;;9.13;79.47;101067.69;5054094;28;20088;-73
2022/10/22 07:08:07;;;;;;;5.40;3.00;;;;;;;9.11;79.51;101063.41;5055011;28;20508;-73
2022/10/22 07:10:33;;;;;;;6.88;3.08;;;;;;;9.11;79.59;101064.25;5053215;28;20045;-73
2022/10/22 07:12:58;;;;;;;6.15;3.60;;;;;;;9.16;80.35;101070.16;5053539;28;20099;-75
2022/10/22 07:15:24;;;;;;;6.53;3.42;;;;;;;9.21;80.08;101059.09;5055913;28;20420;-73
2022/10/22 07:17:50;;;;;;;8.48;3.00;;;;;;;9.19;80.39;101061.91;5053984;28;20394;-71
2022/10/22 07:20:17;;;;;;;5.95;3.33;;;;;;;9.23;79.39;101060.69;5053754;28;20055;-74
2022/10/22 07:22:44;;;;;;;8.57;3.60;;;;;;;9.26;78.23;101063.19;5054987;28;20537;-73
2022/10/22 07:25:10;;;;;;;5.93;3.15;;;;;;;9.24;78.22;101065.13;5053462;28;20110;-72
2022/10/22 07:27:36;;;;;;;4.00;2.92;;;;;;;9.24;78.02;101062.44;5053062;28;20068;-74
2022/10/22 07:30:01;;;;;;;4.38;3.10;;;;;;;9.27;77.83;101066.75;5054574;28;20036;-74
2022/10/22 07:32:27;;;;;;;6.50;3.83;;;;;;;9.27;77.68;101070.28;5054502;28;20099;-72
2022/10/22 07:34:53;;;;;;;4.80;2.90;;;;;;;9.26;78.08;101068.56;5053227;28;20067;-73
2022/10/22 07:37:20;;;;;;;8.48;3.67;;;;;;;9.29;77.87;101065.66;5052978;28;20025;-73
2022/10/22 07:39:47;;;;;;;4.85;3.42;;;;;;;9.31;77.75;101066.41;5054686;28;20032;-73
2022/10/22 07:42:13;;;;;;;7.38;3.45;;;;;;;9.35;77.92;101057.16;5054214;28;20040;-72
2022/10/22 07:44:40;;;;;;;5.43;3.42;;;;;;;9.33;77.91;101067.16;5054099;28;20382;-73
2022/10/22 07:47:05;;;;;;;5.15;3.50;;;;;;;9.35;77.83;101057.16;5052380;28;20426;-73
2022/10/22 07:49:31;;;;;;;6.32;3.50;;;;;;;9.38;78.02;101044.50;5054111;28;20036;-73
2022/10/22 07:51:56;;;;;;;6.53;3.38;;;;;;;9.35;78.27;101051.81;5053872;28;20089;-72
2022/10/22 07:54:22;;;;;;;4.95;3.72;;;;;;;9.40;78.61;101058.66;5054329;28;20551;-74
2022/10/22 07:56:48;;;;;;;8.48;3.85;;;;;;;9.42;78.05;101059.44;5054553;28;20075;-74
2022/10/22 07:59:14;;;;;;;6.97;4.05;;;;;;;9.43;78.81;101058.47;5054092;28;20108;-74
2022/10/22 08:01:39;;;;;;;6.38;3.90;;;;;;;9.42;78.80;101056.75;5052854;28;20342;-74
2022/10/22 08:04:07;;;;;;;6.38;3.97;;;;;;;9.41;78.80;101060.41;5053782;28;20044;-72
2022/10/22 08:06:33;;;;;;;7.75;3.92;;;;;;;9.39;79.09;101060.50;5054053;28;20036;-72
2022/10/22 08:08:59;;;;;;;5.65;4.10;;;;;;;9.40;79.11;101067.56;5052244;28;20490;-73
2022/10/22 08:11:25;;;;;;;10.30;5.55;;;;;;;9.43;79.43;101058.47;5052730;28;20037;-73
2022/10/22 08:13:52;;;;;;;6.43;4.65;;;;;;;9.43;79.12;101063.84;5052458;28;20043;-72
2022/10/22 08:16:17;;;;;;;5.25;4.00;;;;;;;9.41;79.45;101066.63;5053607;28;20036;-71
2022/10/22 08:18:43;;;;;;;7.68;5.15;;;;;;;9.42;78.82;101064.81;5052360;28;20032;-73
2022/10/22 08:21:12;;;;;;;6.22;4.35;;;;;;;9.45;78.88;101069.97;5053829;28;20343;-71
2022/10/22 08:23:38;;;;;;;6.43;4.75;;;;;;;9.42;78.10;101059.44;5052579;28;20067;-73
2022/10/22 08:26:04;;;;;;;5.00;4.45;;;;;;;9.44;78.07;101062.88;5052470;28;20029;-74
2022/10/22 08:28:34;;;;;;;7.10;4.60;;;;;;;9.46;78.54;101053.75;5052274;28;20033;-74
2022/10/22 08:31:00;;;;;;;8.48;4.63;;;;;;;9.50;78.00;101054.38;5052691;28;20028;-74
2022/10/22 08:33:25;;;;;;;8.32;4.57;;;;;;;9.54;77.84;101051.34;5051941;28;20036;-72
2022/10/22 08:35:51;;;;;;;8.95;4.40;;;;;;;9.55;78.25;101050.38;5053410;28;20517;-73
2022/10/22 08:38:18;;;;;;;8.93;4.85;;;;;;;9.64;78.04;101054.25;5053552;28;20120;-74
2022/10/22 08:40:48;;;;;;;6.38;4.63;;;;;;;9.64;78.14;101046.22;5051726;28;20036;-73
2022/10/22 08:43:38;;;;;;;6.15;4.80;;;;;;;9.72;78.51;101054.56;5051711;28;20043;-72
2022/10/22 08:46:21;;;;;;;5.57;4.15;;;;;;;9.70;77.99;101056.50;5051862;28;20025;-73
2022/10/22 08:48:47;;;;;;;5.72;3.95;;;;;;;9.66;77.21;101052.31;5051255;28;20033;-72
2022/10/22 08:51:19;;;;;;;6.38;4.65;;;;;;;9.70;77.27;101040.38;5053731;28;20500;-73
2022/10/22 08:54:10;;;;;;;5.55;4.15;;;;;;;9.79;77.47;101042.41;5051405;28;20074;-72
2022/10/22 08:56:39;;;;;;;8.18;5.63;;;;;;;9.82;77.06;101049.38;5051664;28;20039;-73
2022/10/22 08:59:15;;;;;;;7.75;4.85;;;;;;;9.84;77.18;101052.81;5052114;28;20073;-74
2022/10/22 09:01:45;;;;;;;6.05;5.18;;;;;;;9.84;77.66;101048.31;5054406;28;20505;-72
2022/10/22 09:04:29;;;;;;;7.45;5.30;;;;;;;9.84;76.82;101044.75;5052773;28;20031;-74
2022/10/22 09:06:58;;;;;;;6.35;4.72;;;;;;;9.86;76.76;101051.72;5052494;28;20033;-72
2022/10/22 09:09:30;;;;;;;7.50;4.90;;;;;;;9.91;77.17;101044.22;5052661;28;20080;-72
2022/10/22 09:11:58;;;;;;;9.07;5.10;;;;;;;10.04;76.42;101041.47;5051440;28;20367;-73
2022/10/22 09:14:25;;;;;;;7.90;4.50;;;;;;;10.09;76.57;101046.53;5052110;28;20077;-71
2022/10/22 09:17:15;;;;;;;8.10;4.75;;;;;;;10.05;76.14;101050.38;5052193;28;20056;-71
2022/10/22 09:20:15;;;;;;;6.72;5.00;;;;;;;9.92;76.79;101040.56;5051023;28;20052;-72
2022/10/22 09:22:49;;;;;;;8.77;5.55;;;;;;;10.05;76.70;101039.66;5051758;28;20029;-73
2022/10/22 09:25:31;;;;;;;9.07;5.20;;;;;;;9.93;75.69;101034.22;5050964;28;20029;-72
2022/10/22 09:27:57;;;;;;;7.60;5.28;;;;;;;9.88;76.48;101039.06;5050949;28;20094;-72
2022/10/22 09:30:28;;;;;;;8.32;5.45;;;;;;;9.88;76.65;101048.94;5052532;28;20366;-72
2022/10/22 09:33:06;;;;;;;6.50;4.70;;;;;;;9.95;76.69;101040.34;5052148;28;20074;-72
2022/10/22 09:35:54;;;;;;;8.93;5.50;;;;;;;9.98;76.30;101043.78;5051228;28;20021;-72
2022/10/22 09:38:24;;;;;;;8.30;4.93;;;;;;;9.98;76.58;101039.25;5052598;28;20033;-72
2022/10/22 09:40:53;;;;;;;10.18;5.15;;;;;;;10.07;76.08;101043.94;5052068;28;20033;-73
2022/10/22 09:43:20;;;;;;;9.60;5.13;;;;;;;10.08;75.77;101040.31;5050442;28;20063;-74
2022/10/22 09:45:47;;;;;;;7.10;4.93;;;;;;;10.16;75.40;101039.72;5051416;28;20033;-72
2022/10/22 09:48:13;;;;;;;8.32;5.45;;;;;;;10.21;75.29;101040.25;5051905;28;20036;-72
2022/10/22 09:50:42;;;;;;;6.38;4.97;;;;;;;10.16;75.77;101042.41;5050322;28;20028;-73
2022/10/22 09:53:17;;;;;;;9.23;5.55;;;;;;;10.00;76.12;101036.44;5051290;28;20470;-73
2022/10/22 09:55:47;;;;;;;10.30;5.57;;;;;;;10.05;76.85;101034.28;5050562;28;20045;-73
2022/10/22 09:58:13;;;;;;;6.88;4.75;;;;;;;10.14;76.07;101033.59;5050459;28;20036;-73
2022/10/22 10:00:42;;;;;;;7.05;5.63;;;;;;;10.02;76.08;101024.63;5051837;28;20037;-73
2022/10/22 10:03:17;;;;;;;9.45;5.68;;;;;;;10.12;76.33;101024.81;5051681;28;20494;-72
2022/10/22 10:05:47;;;;;;;10.60;5.88;;;;;;;10.12;75.93;101011.38;5051815;28;20036;-72
2022/10/22 10:08:15;;;;;;;6.22;4.70;;;;;;;10.16;76.10;101007.47;5050175;28;20144;-74
2022/10/22 10:11:03;;;;;;;8.32;5.18;;;;;;;10.11;76.18;101012.34;5050997;28;20466;-73
2022/10/22 10:13:46;;;;;;;8.90;5.60;;;;;;;10.11;76.27;101006.97;5049932;28;20029;-73
2022/10/22 10:16:31;;;;;;;9.43;5.30;;;;;;;10.12;76.33;101014.91;5051515;28;20039;-73
2022/10/22 10:19:21;;;;;;;9.73;5.17;;;;;;;10.13;75.74;101010.41;5049971;28;20044;-73
2022/10/22 10:22:05;;;;;;;7.50;5.00;;;;;;;10.06;76.42;101009.13;5050931;28;20273;-72
2022/10/22 10:24:49;;;;;;;7.80;5.38;;;;;;;10.07;76.23;101008.16;5050413;28;20430;-72
2022/10/22 10:27:34;;;;;;;7.43;5.45;;;;;;;10.03;76.09;100998.63;5050943;28;20025;-71
2022/10/22 10:30:14;;;;;;;8.57;5.43;;;;;;;10.07;76.94;100994.72;5050384;28;20025;-72
2022/10/22 10:33:04;;;;;;;7.82;5.07;;;;;;;10.04;76.98;100995.81;5050329;28;20032;-72
2022/10/22 10:35:42;;;;;;;8.93;5.55;;;;;;;10.10;76.33;101002.56;5050948;28;20489;-72
2022/10/22 10:38:25;;;;;;;8.77;5.35;;;;;;;10.13;76.43;100988.91;5050616;28;20489;-74
2022/10/22 10:41:28;;;;;;;8.60;5.32;;;;;;;10.08;76.48;100988.41;5050055;28;20398;-74
2022/10/22 10:44:09;;;;;;;9.07;5.95;;;;;;;10.06;77.13;100982.25;5050290;28;20033;-73
2022/10/22 10:46:56;;;;;;;6.70;5.45;;;;;;;10.05;76.65;100983.22;5050261;28;20056;-71
2022/10/22 10:49:29;;;;;;;7.63;4.97;;;;;;;10.03;77.33;100979.81;5051636;28;20033;-73
2022/10/22 10:52:25;;;;;;;9.63;5.43;;;;;;;10.03;77.60;100966.38;5051150;28;20108;-73
2022/10/22 10:55:14;;;;;;;8.93;5.38;;;;;;;10.05;77.17;100959.91;5049919;28;20041;-71
2022/10/22 10:58:00;;;;;;;9.63;5.10;;;;;;;10.12;77.51;100960.31;5050038;28;20036;-73
2022/10/22 11:00:30;;;;;;;9.10;6.10;;;;;;;10.14;77.89;100963.75;5050167;28;20029;-72
2022/10/22 11:03:50;;;;;;;13.60;6.78;;;;;;;9.89;78.47;100960.19;5049900;28;20033;-78
2022/10/22 11:06:19;;;;;;;8.63;5.90;;;;;;;9.93;78.95;100956.34;5049334;28;20029;-71
2022/10/22 11:09:25;;;;;;;10.10;6.63;;;;;;;9.82;81.88;100958.09;5050914;28;20029;-72
2022/10/22 11:12:01;;;;;;;;;;;;;;;9.65;82.18;100956.63;5050261;28;20379;-70
2022/10/22 11:14:40;;;;;;;8.60;7.10;;;;;;;9.56;82.43;100955.47;5054203;28;20011;-70
2022/10/22 11:17:17;;;;;;;11.65;7.45;;;;;;;9.70;83.00;100950.94;5052608;28;20488;-69
2022/10/22 11:20:04;;;;;;;12.95;7.88;;;;;;;9.70;83.66;100948.25;5052380;28;20032;-71
2022/10/22 11:22:42;;;;;;;10.85;8.05;;;;;;;9.68;84.16;100939.44;5053844;28;20365;-69
2022/10/22 11:25:11;;;;;;;11.48;8.35;;;;;;;9.59;85.03;100938.31;5052868;28;20025;-68
2022/10/22 11:27:44;;;;;;;10.50;8.13;;;;;;;9.42;87.00;100938.69;5052694;28;20055;-68
2022/10/22 11:30:14;;;;;;;9.80;8.00;;;;;;;9.52;88.99;100934.34;5053735;28;20042;-70
2022/10/22 11:32:42;;;;;;;12.43;8.25;;;;;;;9.40;88.36;100929.84;5054409;28;20033;-70
2022/10/22 11:35:15;;;;;;;11.23;7.57;;;;;;;9.52;87.67;100928.97;5054046;28;20067;-70
2022/10/22 11:37:43;;;;;;;11.70;8.18;;;;;;;9.49;87.84;100923.84;5054407;28;20040;-69
2022/10/22 11:40:31;;;;;;;11.38;7.82;;;;;;;9.47;88.42;100926.63;5053746;28;20492;-70
2022/10/22 11:43:02;;;;;;;11.55;7.97;;;;;;;9.46;87.88;100924.06;5052487;28;20457;-74
2022/10/22 11:45:34;;;;;;;10.52;8.13;;;;;;;9.46;88.12;100916.88;5054105;28;20386;-70
2022/10/22 11:48:08;;;;;;;13.65;9.10;;;;;;;9.47;88.44;100909.69;5053741;28;20029;-70